createdAt,value
2023-02-06T00:00:00.088Z,-4.65
2023-02-06T00:05:08.782Z,-4.63
2023-02-06T00:10:16.849Z,-4.63
2023-02-06T00:15:24.683Z,-4.67
2023-02-06T00:20:32.266Z,-4.70
2023-02-06T00:25:39.893Z,-4.71
2023-02-06T00:30:50.560Z,-4.73
2023-02-06T00:35:58.289Z,-4.73
2023-02-06T00:41:06.708Z,-4.72
2023-02-06T00:46:15.757Z,-4.75
2023-02-06T00:51:24.661Z,-4.77
2023-02-06T00:56:32.340Z,-4.75
2023-02-06T01:01:39.864Z,-4.69
2023-02-06T01:06:48.007Z,-4.66
2023-02-06T01:11:55.462Z,-4.67
2023-02-06T01:17:02.950Z,-4.71
2023-02-06T01:22:10.755Z,-4.73
2023-02-06T01:27:18.257Z,-4.75
2023-02-06T01:32:25.665Z,-4.74
2023-02-06T01:37:34.027Z,-4.73
2023-02-06T01:42:43.442Z,-4.74
2023-02-06T01:47:53.569Z,-4.77
2023-02-06T01:53:01.535Z,-4.77
2023-02-06T01:58:10.350Z,-4.70
2023-02-06T02:03:18.363Z,-4.66
2023-02-06T02:08:32.864Z,-4.67
2023-02-06T02:13:41.781Z,-4.69
2023-02-06T02:19:01.385Z,-4.69
2023-02-06T02:24:15.277Z,-4.68
2023-02-06T02:29:49.373Z,-4.69
2023-02-06T02:35:14.632Z,-4.74
2023-02-06T02:40:30.714Z,-4.79
2023-02-06T02:45:47.107Z,-4.77
2023-02-06T02:50:55.912Z,-4.76
2023-02-06T02:56:03.425Z,-4.77
2023-02-06T03:01:14.113Z,-4.76
2023-02-06T03:06:36.610Z,-4.77
2023-02-06T03:11:52.488Z,-4.76
2023-02-06T03:17:06.565Z,-4.79
2023-02-06T03:22:16.237Z,-4.83
2023-02-06T03:27:24.140Z,-4.86
2023-02-06T03:32:36.807Z,-4.88
2023-02-06T03:37:45.106Z,-4.85
2023-02-06T03:42:57.423Z,-4.80
2023-02-06T03:48:07.950Z,-4.78
2023-02-06T03:53:17.503Z,-4.78
2023-02-06T03:58:25.973Z,-4.82
2023-02-06T04:03:34.564Z,-4.85
2023-02-06T04:08:42.206Z,-4.86
2023-02-06T04:13:49.881Z,-4.88
2023-02-06T04:18:58.420Z,-4.93
2023-02-06T04:24:07.320Z,-4.95
2023-02-06T04:29:15.530Z,-4.93
2023-02-06T04:34:22.992Z,-4.93
2023-02-06T04:39:31.111Z,-4.95
2023-02-06T04:44:38.839Z,-4.96
2023-02-06T04:49:46.896Z,-4.93
2023-02-06T04:54:54.333Z,-4.93
2023-02-06T05:00:01.802Z,-4.92
2023-02-06T05:05:11.635Z,-4.97
2023-02-06T05:10:19.971Z,-4.96
2023-02-06T05:15:27.560Z,-4.97
2023-02-06T05:20:35.653Z,-4.98
2023-02-06T05:25:43.729Z,-4.99
2023-02-06T05:41:08.914Z,-4.96
2023-02-06T05:46:17.713Z,-4.91
2023-02-06T05:51:25.896Z,-4.85
2023-02-06T05:56:33.408Z,-4.84
2023-02-06T06:01:41.002Z,-4.86
2023-02-06T06:06:49.551Z,-4.87
2023-02-06T06:11:57.352Z,-4.85
2023-02-06T06:17:05.332Z,-4.84
2023-02-06T06:22:13.831Z,-4.82
2023-02-06T06:27:22.017Z,-4.84
2023-02-06T06:32:30.525Z,-4.89
2023-02-06T06:37:38.148Z,-4.92
2023-02-06T06:42:46.184Z,-4.90
2023-02-06T06:47:53.898Z,-4.90
2023-02-06T06:53:03.111Z,-4.84
2023-02-06T06:58:12.080Z,-4.77
2023-02-06T07:03:19.875Z,-4.72
2023-02-06T07:08:31.329Z,-4.67
2023-02-06T07:13:39.451Z,-4.61
2023-02-06T07:18:46.921Z,-4.54
2023-02-06T07:23:54.728Z,-4.50
2023-02-06T07:29:02.126Z,-4.50
2023-02-06T07:34:10.888Z,-4.51
2023-02-06T07:39:46.011Z,-4.49
2023-02-06T07:44:53.943Z,-4.46
2023-02-06T07:50:02.172Z,-4.42
2023-02-06T07:55:11.583Z,-4.39
2023-02-06T08:00:20.856Z,-4.31
2023-02-06T08:05:28.184Z,-4.22
2023-02-06T08:10:36.802Z,-4.15
2023-02-06T08:15:45.345Z,-4.02
2023-02-06T08:20:52.926Z,-3.86
2023-02-06T08:26:07.899Z,-3.75
2023-02-06T08:31:17.841Z,-3.70
2023-02-06T08:36:26.829Z,-3.64
2023-02-06T08:41:37.642Z,-3.57
2023-02-06T08:47:04.676Z,-3.52
2023-02-06T08:52:16.408Z,-3.45
2023-02-06T08:57:24.031Z,-3.41
2023-02-06T09:02:32.168Z,-3.37
2023-02-06T09:07:40.573Z,-3.32
2023-02-06T09:12:50.019Z,-3.28
2023-02-06T09:17:58.562Z,-3.44
2023-02-06T09:28:24.398Z,-3.68
2023-02-06T09:33:32.182Z,-3.78
2023-02-06T09:38:43.126Z,-3.82
2023-02-06T09:43:55.747Z,-3.91
2023-02-06T09:49:11.122Z,-3.94
2023-02-06T09:54:30.686Z,-3.91
2023-02-06T09:59:45.242Z,-3.79
2023-02-06T10:04:59.122Z,-3.73
2023-02-06T10:10:14.415Z,-3.75
2023-02-06T10:15:36.835Z,-3.78
2023-02-06T10:20:52.019Z,-3.81
2023-02-06T10:26:07.431Z,-3.83
2023-02-06T10:31:47.972Z,-3.70
2023-02-06T10:37:10.681Z,-3.53
2023-02-06T10:42:25.255Z,-3.41
2023-02-06T10:47:40.342Z,-3.33
2023-02-06T10:52:48.480Z,-3.33
2023-02-06T10:58:06.098Z,-3.26
2023-02-06T11:03:15.755Z,-3.11
2023-02-06T11:08:28.897Z,-3.04
2023-02-06T11:13:40.077Z,-3.09
2023-02-06T11:18:50.346Z,-3.03
2023-02-06T11:24:12.515Z,-2.91
2023-02-06T11:29:22.676Z,-2.79
2023-02-06T11:34:35.925Z,-2.71
2023-02-06T11:39:44.030Z,-2.67
2023-02-06T11:44:53.131Z,-2.76
2023-02-06T11:50:16.924Z,-2.73
2023-02-06T11:55:27.778Z,-2.68
2023-02-06T12:00:37.278Z,-2.67
2023-02-06T12:05:45.250Z,-2.69
2023-02-06T12:10:58.998Z,-2.80
2023-02-06T12:16:09.333Z,-2.90
2023-02-06T12:21:24.626Z,-2.83
2023-02-06T12:28:28.521Z,-2.64
2023-02-06T12:33:42.954Z,-2.57
2023-02-06T12:38:54.363Z,-2.52
2023-02-06T12:44:07.966Z,-2.46
2023-02-06T12:49:22.458Z,-2.38
2023-02-06T12:54:35.077Z,-2.32
2023-02-06T12:59:58.743Z,-2.29
2023-02-06T13:05:17.972Z,-2.28
2023-02-06T13:10:28.239Z,-2.31
2023-02-06T13:15:41.724Z,-2.31
2023-02-06T13:21:18.840Z,-2.33
2023-02-06T13:27:11.103Z,-2.39
2023-02-06T13:32:50.408Z,-2.43
2023-02-06T13:38:30.700Z,-2.49
2023-02-06T13:43:40.536Z,-2.56
2023-02-06T13:49:08.260Z,-2.57
2023-02-06T13:54:35.804Z,-2.55
2023-02-06T13:59:47.807Z,-2.66
2023-02-06T14:04:55.611Z,-2.74
2023-02-06T14:10:27.306Z,-2.70
2023-02-06T14:15:41.069Z,-2.82
2023-02-06T14:20:57.677Z,-2.83
2023-02-06T14:26:17.154Z,-2.84
2023-02-06T14:31:48.469Z,-2.95
2023-02-06T14:37:17.519Z,-3.04
2023-02-06T14:42:28.540Z,-3.06
2023-02-06T14:47:42.781Z,-3.07
2023-02-06T14:52:53.047Z,-3.11
2023-02-06T14:58:01.684Z,-3.20
2023-02-06T15:03:16.808Z,-3.24
2023-02-06T15:08:24.448Z,-3.27
2023-02-06T15:13:36.247Z,-3.35
2023-02-06T15:18:43.909Z,-3.48
2023-02-06T15:24:07.594Z,-3.53
2023-02-06T15:29:22.302Z,-3.58
2023-02-06T15:34:29.799Z,-3.64
2023-02-06T15:39:39.623Z,-3.67
2023-02-06T15:44:49.451Z,-3.68
2023-02-06T15:50:01.490Z,-3.70
2023-02-06T15:55:22.558Z,-3.74
2023-02-06T16:00:33.371Z,-3.79
2023-02-06T16:05:43.205Z,-3.83
2023-02-06T16:10:54.783Z,-3.91
2023-02-06T16:16:19.911Z,-4.01
2023-02-06T16:21:31.042Z,-4.11
2023-02-06T16:28:23.555Z,-4.20
2023-02-06T16:33:40.678Z,-4.33
2023-02-06T16:39:02.711Z,-4.46
2023-02-06T16:44:15.611Z,-4.64
2023-02-06T16:49:24.825Z,-4.79
2023-02-06T16:54:34.113Z,-4.91
2023-02-06T16:59:43.011Z,-5.00
2023-02-06T17:04:51.437Z,-5.07
2023-02-06T17:10:02.203Z,-5.12
2023-02-06T17:15:12.393Z,-5.19
2023-02-06T17:20:29.726Z,-5.25
2023-02-06T17:25:35.861Z,-5.35
2023-02-06T17:30:44.598Z,-5.56
2023-02-06T17:35:52.538Z,-5.79
2023-02-06T17:54:57.000Z,-6.24
2023-02-06T18:00:08.610Z,-6.25
2023-02-06T18:05:16.321Z,-6.24
2023-02-06T18:10:26.201Z,-6.24
2023-02-06T18:15:34.203Z,-6.25
2023-02-06T18:20:43.828Z,-6.30
2023-02-06T18:28:29.124Z,-6.43
2023-02-06T18:33:35.637Z,-6.63
2023-02-06T18:38:40.160Z,-6.70
2023-02-06T18:43:45.817Z,-6.75
2023-02-06T18:48:50.255Z,-6.84
2023-02-06T18:53:55.156Z,-6.93
2023-02-06T18:58:59.747Z,-7.04
2023-02-06T19:04:04.904Z,-7.14
2023-02-06T19:09:09.453Z,-7.22
2023-02-06T19:14:16.547Z,-7.32
2023-02-06T19:19:20.779Z,-7.39
2023-02-06T19:24:27.529Z,-7.46
2023-02-06T19:29:36.057Z,-7.48
2023-02-06T19:34:44.776Z,-7.51
2023-02-06T19:39:48.762Z,-7.55
2023-02-06T19:44:54.228Z,-7.60
2023-02-06T19:49:58.398Z,-7.61
2023-02-06T19:55:02.289Z,-7.58
2023-02-06T20:00:08.214Z,-7.64
2023-02-06T20:05:13.170Z,-7.68
2023-02-06T20:10:17.396Z,-7.71
2023-02-06T20:15:22.049Z,-7.77
2023-02-06T20:20:26.703Z,-7.84
2023-02-06T20:28:16.255Z,-7.94
2023-02-06T20:33:24.996Z,-8.05
2023-02-06T20:38:33.291Z,-8.13
2023-02-06T20:43:41.889Z,-8.21
2023-02-06T20:52:19.485Z,-8.21
2023-02-06T20:57:27.110Z,-8.29
2023-02-06T21:06:06.799Z,-8.37
2023-02-06T21:11:16.225Z,-8.45
2023-02-06T21:16:23.840Z,-8.50
2023-02-06T21:21:32.214Z,-8.50
2023-02-06T21:26:40.505Z,-8.47
2023-02-06T21:31:52.330Z,-8.40
2023-02-06T21:37:05.797Z,-8.34
2023-02-06T21:42:16.074Z,-8.31
2023-02-06T21:47:24.348Z,-8.23
2023-02-06T21:52:32.147Z,-8.17
2023-02-06T21:57:39.546Z,-8.11
2023-02-06T22:02:47.398Z,-8.08
2023-02-06T22:07:55.309Z,-8.07
2023-02-06T22:13:03.206Z,-8.05
2023-02-06T22:18:11.802Z,-8.03
2023-02-06T22:23:19.337Z,-7.98
2023-02-06T22:28:26.606Z,-7.94
2023-02-06T22:33:34.287Z,-7.96
2023-02-06T22:38:44.828Z,-8.00
2023-02-06T22:43:53.500Z,-8.05
2023-02-06T22:49:01.932Z,-8.08
2023-02-06T22:54:11.782Z,-8.06
2023-02-06T22:59:22.203Z,-8.02
2023-02-06T23:04:31.152Z,-7.96
2023-02-06T23:09:41.403Z,-7.88
2023-02-06T23:14:49.212Z,-7.83
2023-02-06T23:19:56.809Z,-7.79
2023-02-06T23:25:04.675Z,-7.78
2023-02-06T23:30:14.264Z,-7.83
2023-02-06T23:35:21.807Z,-7.89
2023-02-06T23:40:29.761Z,-7.99
2023-02-06T23:45:37.911Z,-8.07
2023-02-06T23:50:46.220Z,-8.24
2023-02-06T23:55:53.561Z,-8.39
